Home > Products > Valid Products > MTR

000
SAUS45 KFGZ 231658
MTRFLG
METAR KFLG 231657Z 18003KT 10SM CLR 17/01 A3037 RMK AO2 SLP215
T01720011





000
SAUS45 KFGZ 231558
MTRFLG
METAR KFLG 231557Z 00000KT 10SM CLR 14/03 A3037 RMK AO2 SLP220
T01440028





000
SAUS45 KFGZ 231458
MTRFLG
METAR KFLG 231457Z 00000KT 10SM CLR 06/01 A3035 RMK AO2 SLP233
T00610011 53012





000
SAUS45 KFGZ 231458
MTRFLG
METAR KFLG 231457Z 00000KT 10SM CLR 06/01 A3035 RMK AO2 SLP233
T00610011 53012





000
SAUS45 KFGZ 231358
MTRFLG
METAR KFLG 231357Z 00000KT 10SM CLR 01/M02 A3032 RMK AO2 SLP232
T00061022





000
SAUS45 KFGZ 231258
MTRFLG
METAR KFLG 231257Z AUTO 00000KT 8SM CLR 01/M02 A3031 RMK AO2 SLP214
T00061017 TSNO





000
SAUS45 KFGZ 231158
MTRFLG
METAR KFLG 231157Z AUTO 00000KT 5SM BR CLR 01/M02 A3031 RMK AO2
SLP206 7//// T00061017 10039 20006 55002 TSNO





000
SAUS45 KFGZ 231058
MTRFLG
METAR KFLG 231057Z AUTO 00000KT 5SM HZ CLR 01/M02 A3030 RMK AO2
SLP201 T00111017 TSNO





000
SAUS45 KFGZ 230958
MTRFLG
METAR KFLG 230957Z AUTO 00000KT 5SM HZ CLR 01/M02 A3030 RMK AO2
SLP198 T00111017 TSNO





000
SAUS45 KFGZ 230958
MTRFLG
METAR KFLG 230957Z AUTO 00000KT 5SM HZ CLR 01/M02 A3030 RMK AO2
SLP198 T00111017 TSNO





000
SAUS45 KFGZ 230858
MTRFLG
METAR KFLG 230857Z AUTO 00000KT 8SM CLR 02/M02 A3032 RMK AO2 SLP203
T00171017 53001 TSNO





000
SAUS45 KFGZ 230758
MTRFLG
METAR KFLG 230757Z AUTO 00000KT 9SM CLR 03/M01 A3031 RMK AO2 SLP196
T00281011 TSNO





000
SAUS45 KFGZ 230658
MTRFLG
METAR KFLG 230657Z AUTO 00000KT 9SM CLR 02/M02 A3030 RMK AO2 SLP193
T00221017 401890017 TSNO





000
SAUS45 KFGZ 230558
MTRFLG
METAR KFLG 230557Z AUTO 00000KT 10SM CLR 04/M01 A3031 RMK AO2 SLP201
T00391011 10167 20033 51006 TSNO





000
SAUS45 KFGZ 230458
MTRFLG
METAR KFLG 230457Z AUTO 00000KT 10SM CLR 04/M01 A3030 RMK AO2 SLP198
T00441006 TSNO





000
SAUS45 KFGZ 230458
MTRFLG
METAR KFLG 230457Z AUTO 00000KT 10SM CLR 04/M01 A3030 RMK AO2 SLP198
T00441006 TSNO





000
SAUS45 KFGZ 230358
MTRFLG
METAR KFLG 230357Z AUTO 00000KT 10SM CLR 06/00 A3030 RMK AO2 SLP202
T00560000 TSNO





000
SAUS45 KFGZ 230358
MTRFLG
METAR KFLG 230357Z AUTO 00000KT 10SM CLR 06/00 A3030 RMK AO2 SLP202
T00560000 TSNO





000
SAUS45 KFGZ 230258
MTRFLG
METAR KFLG 230257Z AUTO 00000KT 10SM CLR 07/01 A3029 RMK AO2 SLP213
T00720011 51014 TSNO





000
SAUS45 KFGZ 230158
MTRFLG
METAR KFLG 230157Z 00000KT 10SM CLR 09/01 A3028 RMK AO2 SLP213
T00940011





000
SAUS45 KFGZ 230158
MTRFLG
METAR KFLG 230157Z 00000KT 10SM CLR 09/01 A3028 RMK AO2 SLP213
T00940011





000
SAUS45 KFGZ 230058
MTRFLG
METAR KFLG 230057Z 22004KT 10SM CLR 14/02 A3026 RMK AO2 SLP193
T01390017





000
SAUS45 KFGZ 230058
MTRFLG
METAR KFLG 230057Z 22004KT 10SM CLR 14/02 A3026 RMK AO2 SLP193
T01390017





000
SAUS45 KFGZ 222358
MTRFLG
METAR KFLG 222357Z 20009KT 10SM CLR 17/02 A3024 RMK AO2 SLP176
T01670017 10189 20156 52004





000
SAUS45 KFGZ 222358
MTRFLG
METAR KFLG 222357Z 20009KT 10SM CLR 17/02 A3024 RMK AO2 SLP176
T01670017 10189 20156 52004





000
SAUS45 KFGZ 222258
MTRFLG
METAR KFLG 222257Z 20011KT 10SM FEW065 18/03 A3023 RMK AO2 SLP171
T01780028





000
SAUS45 KFGZ 222258
MTRFLG
METAR KFLG 222257Z 20011KT 10SM FEW065 18/03 A3023 RMK AO2 SLP171
T01780028





000
SAUS45 KFGZ 222159
MTRFLG
METAR KFLG 222157Z 20010G15KT 10SM CLR 18/02 A3023 RMK AO2 SLP170
T01830022





000
SAUS45 KFGZ 222059
MTRFLG
METAR KFLG 222057Z AUTO 19012KT 150V220 10SM FEW065 18/03 A3023 RMK
AO2 SLP166 T01830033 56012 TSNO





000
SAUS45 KFGZ 221958
MTRFLG
METAR KFLG 221957Z AUTO 23006KT 10SM CLR 18/03 A3024 RMK AO2 SLP170
T01830028 TSNO





000
SAUS45 KFGZ 221858
MTRFLG
METAR KFLG 221857Z AUTO 15007KT 10SM CLR 18/02 A3026 RMK AO2 SLP173
T01830022 TSNO





000
SAUS45 KFGZ 221758
MTRFLG
METAR KFLG 221757Z AUTO VRB03KT 10SM CLR 16/03 A3027 RMK AO2 SLP181
6//// T01560028 10161 20017 TSNO





000
SAUS45 KFGZ 221758
MTRFLG
METAR KFLG 221757Z AUTO VRB03KT 10SM CLR 16/03 A3027 RMK AO2 SLP181
6//// T01560028 10161 20017 TSNO





000
SAUS45 KFGZ 221658
MTRFLG
METAR KFLG 221657Z AUTO 00000KT 10SM CLR 15/04 A3027 RMK AO2 SLP178
T01500044 TSNO





000
SAUS45 KFGZ 221658
MTRFLG
METAR KFLG 221657Z AUTO 00000KT 10SM CLR 15/04 A3027 RMK AO2 SLP178
T01500044 TSNO





000
SAUS45 KFGZ 221558
MTRFLG
METAR KFLG 221557Z 05003KT 10SM CLR 13/05 A3027 RMK AO2 SLP180
T01280050





000
SAUS45 KFGZ 221558
MTRFLG
METAR KFLG 221557Z 05003KT 10SM CLR 13/05 A3027 RMK AO2 SLP180
T01280050





000
SAUS45 KFGZ 221458
MTRFLG
METAR KFLG 221457Z 00000KT 10SM CLR 07/04 A3025 RMK AO2 SLP192 60000
T00720039 53018





000
SAUS45 KFGZ 221358
MTRFLG
METAR KFLG 221357Z 00000KT 10SM CLR 02/00 A3022 RMK AO2 SLP192
T00170000





000
SAUS45 KFGZ 221258
MTRFLG
METAR KFLG 221257Z AUTO 00000KT 10SM CLR 02/01 A3020 RMK AO2
SNB01E12 SLP172 P0000 T00220006 TSNO





000
SAUS45 KFGZ 221158
MTRFLG
METAR KFLG 221157Z AUTO 00000KT 10SM CLR 02/01 A3019 RMK AO2 SLP160
T00220006 10061 20022 53003 TSNO





000
SAUS45 KFGZ 221058
MTRFLG
METAR KFLG 221057Z AUTO 00000KT 10SM CLR 03/01 A3019 RMK AO2 SLP155
T00330011 TSNO





000
SAUS45 KFGZ 221058
MTRFLG
METAR KFLG 221057Z AUTO 00000KT 10SM CLR 03/01 A3019 RMK AO2 SLP155
T00330011 TSNO





000
SAUS45 KFGZ 220958
MTRFLG
METAR KFLG 220957Z AUTO 00000KT 10SM CLR 03/01 A3018 RMK AO2 SLP151
T00280011 TSNO





000
SAUS45 KFGZ 220958
MTRFLG
METAR KFLG 220957Z AUTO 00000KT 10SM CLR 03/01 A3018 RMK AO2 SLP151
T00280011 TSNO





000
SAUS45 KFGZ 220858
MTRFLG
METAR KFLG 220857Z AUTO 00000KT 10SM CLR 03/01 A3018 RMK AO2 SLP148
T00330011 58001 TSNO





000
SAUS45 KFGZ 220758
MTRFLG
METAR KFLG 220757Z AUTO 00000KT 10SM CLR 04/02 A3018 RMK AO2 SLP151
T00440022 TSNO





000
SAUS45 KFGZ 220658
MTRFLG
METAR KFLG 220657Z AUTO 00000KT 10SM CLR 04/03 A3019 RMK AO2 SLP154
T00440028 401830006 TSNO





000
SAUS45 KFGZ 220558
MTRFLG
METAR KFLG 220557Z AUTO 00000KT 10SM CLR 06/03 A3018 RMK AO2 SLP149
T00610028 10161 20050 53008 TSNO





000
SAUS45 KFGZ 220558
MTRFLG
METAR KFLG 220557Z AUTO 00000KT 10SM CLR 06/03 A3018 RMK AO2 SLP149
T00610028 10161 20050 53008 TSNO





000
SAUS45 KFGZ 220458
MTRFLG
METAR KFLG 220457Z AUTO 00000KT 10SM CLR 07/03 A3017 RMK AO2 SLP147
T00670028 TSNO





000
SAUS45 KFGZ 220458
MTRFLG
METAR KFLG 220457Z AUTO 00000KT 10SM CLR 07/03 A3017 RMK AO2 SLP147
T00670028 TSNO





000
SAUS45 KFGZ 220358
MTRFLG
METAR KFLG 220357Z AUTO 22004KT 10SM CLR 09/04 A3015 RMK AO2 SLP139
T00890039 TSNO





000
SAUS45 KFGZ 220358
MTRFLG
METAR KFLG 220357Z AUTO 22004KT 10SM CLR 09/04 A3015 RMK AO2 SLP139
T00890039 TSNO





000
SAUS45 KFGZ 220258
MTRFLG
METAR KFLG 220257Z AUTO 22004KT 10SM CLR 08/02 A3015 RMK AO2 SLP155
T00830022 53010 TSNO





000
SAUS45 KFGZ 220158
MTRFLG
METAR KFLG 220157Z 00000KT 10SM CLR 09/02 A3013 RMK AO2 SLP160
T00940022





000
SAUS45 KFGZ 220158
MTRFLG
METAR KFLG 220157Z 00000KT 10SM CLR 09/02 A3013 RMK AO2 SLP160
T00940022





000
SAUS45 KFGZ 220058
MTRFLG
METAR KFLG 220057Z 23004KT 10SM CLR 13/03 A3012 RMK AO2 SLP147
T01330028





000
SAUS45 KFGZ 212358
MTRFLG
METAR KFLG 212357Z 22012KT 10SM CLR 16/03 A3011 RMK AO2 SLP136
T01610028 10183 20156 55002





000
SAUS45 KFGZ 212258
MTRFLG
METAR KFLG 212257Z 24012KT 10SM CLR 18/02 A3011 RMK AO2 SLP129
T01780017





000
SAUS45 KFGZ 212258
MTRFLG
METAR KFLG 212257Z 24012KT 10SM CLR 18/02 A3011 RMK AO2 SLP129
T01780017





000
SAUS45 KFGZ 212158
MTRFLG
METAR KFLG 212157Z 19009G16KT 10SM CLR 18/02 A3010 RMK AO2 SLP125
T01780017





000
SAUS45 KFGZ 212158
MTRFLG
METAR KFLG 212157Z 19009G16KT 10SM CLR 18/02 A3010 RMK AO2 SLP125
T01780017





000
SAUS45 KFGZ 212058
MTRFLG
METAR KFLG 212057Z 22010KT 10SM CLR 18/02 A3012 RMK AO2 SLP130
T01830017 56018





000
SAUS45 KFGZ 211958
MTRFLG
METAR KFLG 211957Z 22009KT 10SM CLR 18/02 A3014 RMK AO2 SLP136
T01780022





000
SAUS45 KFGZ 211958
MTRFLG
METAR KFLG 211957Z 22009KT 10SM CLR 18/02 A3014 RMK AO2 SLP136
T01780022





000
SAUS45 KFGZ 211858
MTRFLG
METAR KFLG 211857Z 21007KT 10SM CLR 17/02 A3016 RMK AO2 SLP145
T01670022





000
SAUS45 KFGZ 211758
MTRFLG
METAR KFLG 211757Z 22006KT 10SM CLR 16/04 A3018 RMK AO2 SLP156
T01560039 10161 20006 58004





000
SAUS45 KFGZ 211658
MTRFLG
METAR KFLG 211657Z 22005KT 10SM CLR 14/06 A3019 RMK AO2 SLP159
T01390056





000
SAUS45 KFGZ 211658
MTRFLG
METAR KFLG 211657Z 22005KT 10SM CLR 14/06 A3019 RMK AO2 SLP159
T01390056





000
SAUS45 KFGZ 211558
MTRFLG
METAR KFLG 211557Z 00000KT 10SM CLR 13/06 A3020 RMK AO2 SLP159
T01330061





000
SAUS45 KFGZ 211558
MTRFLG
METAR KFLG 211557Z 00000KT 10SM CLR 13/06 A3020 RMK AO2 SLP159
T01330061





000
SAUS45 KFGZ 211458
MTRFLG
METAR KFLG 211457Z 00000KT 10SM CLR 07/04 A3020 RMK AO2 SLP169
T00720044 53011





000
SAUS45 KFGZ 211358
MTRFLG
METAR KFLG 211357Z 00000KT 10SM CLR 01/M01 A3017 RMK AO2 SLP175
T00111006





000
SAUS45 KFGZ 211258
MTRFLG
METAR KFLG 211257Z AUTO 00000KT 10SM CLR 01/M01 A3017 RMK AO2 SLP168
T00061006 TSNO





000
SAUS45 KFGZ 211158
MTRFLG
METAR KFLG 211157Z AUTO 00000KT 10SM CLR 01/00 A3016 RMK AO2 SLP155
T00110000 10044 20011 56008 TSNO





000
SAUS45 KFGZ 211158
MTRFLG
METAR KFLG 211157Z AUTO 00000KT 10SM CLR 01/00 A3016 RMK AO2 SLP155
T00110000 10044 20011 56008 TSNO





000
SAUS45 KFGZ 211058
MTRFLG
METAR KFLG 211057Z AUTO 00000KT 10SM CLR 02/00 A3016 RMK AO2 SLP154
T00170000 TSNO





000
SAUS45 KFGZ 211058
MTRFLG
METAR KFLG 211057Z AUTO 00000KT 10SM CLR 02/00 A3016 RMK AO2 SLP154
T00170000 TSNO





000
SAUS45 KFGZ 210958
MTRFLG
METAR KFLG 210957Z AUTO 00000KT 10SM CLR 03/01 A3017 RMK AO2 SLP152
T00280006 TSNO





000
SAUS45 KFGZ 210958
MTRFLG
METAR KFLG 210957Z AUTO 00000KT 10SM CLR 03/01 A3017 RMK AO2 SLP152
T00280006 TSNO





000
SAUS45 KFGZ 210858
MTRFLG
METAR KFLG 210857Z AUTO 00000KT 10SM FEW085 03/01 A3018 RMK AO2
SLP156 T00280011 55000 TSNO





000
SAUS45 KFGZ 210758
MTRFLG
METAR KFLG 210757Z AUTO 00000KT 10SM BKN085 03/02 A3018 RMK AO2
SLP153 T00330017 TSNO





000
SAUS45 KFGZ 210658
MTRFLG
METAR KFLG 210657Z AUTO 00000KT 10SM CLR 04/02 A3018 RMK AO2 SLP152
T00390017 401780006 TSNO





000
SAUS45 KFGZ 210558
MTRFLG
METAR KFLG 210557Z AUTO 00000KT 10SM CLR 04/02 A3018 RMK AO2 SLP156
T00440022 10156 20044 50003 TSNO





000
SAUS45 KFGZ 210458
MTRFLG
METAR KFLG 210457Z AUTO 00000KT 10SM CLR 06/03 A3019 RMK AO2 SLP158
T00560028 TSNO





000
SAUS45 KFGZ 210358
MTRFLG
METAR KFLG 210357Z AUTO 00000KT 10SM CLR 07/04 A3018 RMK AO2 SLP155
T00720039 TSNO





000
SAUS45 KFGZ 210358
MTRFLG
METAR KFLG 210357Z AUTO 00000KT 10SM CLR 07/04 A3018 RMK AO2 SLP155
T00720039 TSNO





000
SAUS45 KFGZ 210258
MTRFLG
METAR KFLG 210257Z AUTO 00000KT 10SM FEW070 09/04 A3017 RMK AO2
SLP164 T00890044 50005 TSNO





000
SAUS45 KFGZ 210258
MTRFLG
METAR KFLG 210257Z AUTO 00000KT 10SM FEW070 09/04 A3017 RMK AO2
SLP164 T00890044 50005 TSNO





000
SAUS45 KFGZ 210158
MTRFLG
METAR KFLG 210157Z 00000KT 10SM SCT070 10/05 A3018 RMK AO2 SLP177
T01000050





000
SAUS45 KFGZ 210158
MTRFLG
METAR KFLG 210157Z 00000KT 10SM SCT070 10/05 A3018 RMK AO2 SLP177
T01000050





000
SAUS45 KFGZ 210058
MTRFLG
METAR KFLG 210057Z 00000KT 10SM BKN065 13/06 A3016 RMK AO2 SLP162
T01280056





000
SAUS45 KFGZ 202358
MTRFLG
METAR KFLG 202357Z 18004KT 10SM FEW060 BKN100 16/04 A3016 RMK AO2
SLP155 T01560039 10178 20150 58002





000
SAUS45 KFGZ 202258
MTRFLG
METAR KFLG 202257Z AUTO 22007KT 10SM BKN060 16/04 A3016 RMK AO2
SLP155 T01560044





000
SAUS45 KFGZ 202158
MTRFLG
METAR KFLG 202157Z 21012KT 10SM CLR 16/04 A3017 RMK AO2 SLP158
T01560044





000
SAUS45 KFGZ 202158
MTRFLG
METAR KFLG 202157Z 21012KT 10SM CLR 16/04 A3017 RMK AO2 SLP158
T01560044





000
SAUS45 KFGZ 202058
MTRFLG
METAR KFLG 202057Z VRB06KT 10SM SCT050 BKN070 17/03 A3017 RMK AO2
SLP152 T01670033 56014





000
SAUS45 KFGZ 201958
MTRFLG
METAR KFLG 201957Z 09005KT 10SM BKN060 17/03 A3017 RMK AO2 SLP152
T01720033





000
SAUS45 KFGZ 201858
MTRFLG
METAR KFLG 201857Z 12006KT 10SM FEW048 17/03 A3020 RMK AO2 SLP161
T01670033





000
SAUS45 KFGZ 201758
MTRFLG
METAR KFLG 201757Z 00000KT 10SM CLR 15/03 A3022 RMK AO2 SLP168
T01500033 10156 20006 50001





    US Dept of Commerce
    National Oceanic and Atmospheric Administration
    National Weather Service
    1325 East West Highway
    Silver Spring, MD 20910
    Page Author: NWS Internet Services Team
Disclaimer
Information Quality
Credits
Glossary
Privacy Policy
Freedom of Information Act (FOIA)
About Us
Career Opportunities